Domov               UVHVVR             MKGP            O straneh              
ZDRAVSTVENO VARSTVO RASTLIN
  MREŽA AGROMET. POSTAJ
 ► PROGNOSTIČNA OBVESTILA
AGROMETEOROLOŠKI PODATKI -
ARSO
OBVLADOVANJE TVEGANJ ZARADI
NEUGODNIH VREMENSKIH RAZMER
  ► NARAVNE NESREČE
  ► SUŠA/MOČA
  ► NAMAKANJE
  ► ŽLED (gozdarstvo)
KARTOGRAFSKI PRIKAZI
SPLETNE POVEZAVE
PROJEKTI IN PUBLIKACIJE

AGROMETEOROLOŠKA MREŽA: VREMENSKE POSTAJE IN FENOLOŠKA OPAZOVANJA

Pregled podatkov za lokacijo Gabernik-Rogaška, meteorološka postaja 37800

Pregled senzorjev na lokaciji

ID Ime Zadnja
vrednost
Datum in čas
zadnje
spremembe
(Lokalni čas)
Tip
senzorja
1828 Omočenost lista (U) 0 U 24.5.2019 20:30 A730WET
4946 Padavine (mm) 0 mm 24.5.2019 20:30 Generic 0.2 mm
1827 Relativna vlaga 2 m (% RH) 51.28 % RH 24.5.2019 20:30 50YA
1826 Temperatura 2 m (°C) 19.41 °C 24.5.2019 20:30 50YA

Pregled podatkov zadnjih 24 ur

Zap.
št.
Datum in čas
(Centralno
evropski čas)
Gabernik-Rogaška
Omočenost
lista
Padavine Relativna
vlaga
2
m
Temperatura
2
m
1 24.5.2019 20:30
2 24.5.2019 20:00
3 24.5.2019 19:30 0 0 51.3 19.4
4 24.5.2019 19:00 0 0 49.2 21
5 24.5.2019 18:30 0 0 47.3 22.1
6 24.5.2019 18:00 0 0 45.3 22.6
7 24.5.2019 17:30 0 0 44.3 23
8 24.5.2019 17:00 0 0 44.9 23.4
9 24.5.2019 16:30 0 0 46.7 22.3
10 24.5.2019 16:00 0 0 47.4 22.4
11 24.5.2019 15:30 0 0 49.2 21.2
12 24.5.2019 15:00 0 0 47.4 22.9
13 24.5.2019 14:30 0 0 47.8 23.1
14 24.5.2019 14:00 0 0 49.4 22.1
15 24.5.2019 13:30 0 0 50.5 21.4
16 24.5.2019 13:00 0 0 50 22.3
17 24.5.2019 12:30 0 0 49.4 22
18 24.5.2019 12:00 0 0 51.9 21.4
19 24.5.2019 11:30 0 0 54.1 20.7
20 24.5.2019 11:00 0 0 57.9 19.4
21 24.5.2019 10:30 0 0 61.3 18.4
22 24.5.2019 10:00 0 0 65.6 17.6
23 24.5.2019 09:30 0 0 67 17
24 24.5.2019 09:00 0 0 78 15.6
25 24.5.2019 08:30 0 0 80.7 14.7
26 24.5.2019 08:00 0 0 79.7 14.1
27 24.5.2019 07:30 0 0 81.8 13.8
28 24.5.2019 07:00 0 0 87.2 12
29 24.5.2019 06:30 0 0 89.1 11.1
30 24.5.2019 06:00 0 0 87.1 11.1
31 24.5.2019 05:30 0 0 83.2 11.6
32 24.5.2019 05:00 0 0 82.5 11.6
33 24.5.2019 04:30 0 0 81.7 11.7
34 24.5.2019 04:00 0 0 76.6 12.6
35 24.5.2019 03:30 0 0 75.8 12.8
36 24.5.2019 03:00 0 0 77 12.7
37 24.5.2019 02:30 0 0 79.9 12.4
38 24.5.2019 02:00 0 0 80.3 12.5
39 24.5.2019 01:30 0 0 80.9 12.7
40 24.5.2019 01:00 0 0 81 12.9
41 24.5.2019 00:30 0 0 80 13.3
42 24.5.2019 00:00 0 0 78.7 13.6
43 23.5.2019 23:30 0 0 80.7 13.4
44 23.5.2019 23:00 0 0 79.1 13.8
45 23.5.2019 22:30 0 0 78.1 14.1
46 23.5.2019 22:00 0 0 80 14
47 23.5.2019 21:30 0 0 78.6 14.4
48 23.5.2019 21:00 0 0 77.4 14.9
© 2011 Ministrstvo za kmetijstvo, gozdarstvo in prehrano. Vse pravice pridržane.